createdAt,value
2022-12-16T00:09:35.981Z,13.43
2022-12-16T00:19:37.564Z,10.57
2022-12-16T00:29:39.870Z,12.43
2022-12-16T00:39:41.912Z,9.83
2022-12-16T00:49:43.931Z,10.53
2022-12-16T00:59:45.972Z,11.80
2022-12-16T01:09:47.999Z,9.73
2022-12-16T01:19:50.037Z,8.70
2022-12-16T01:29:52.618Z,7.10
2022-12-16T01:39:54.263Z,7.27
2022-12-16T01:50:11.291Z,7.23
2022-12-16T02:00:13.778Z,6.47
2022-12-16T02:10:17.250Z,6.70
2022-12-16T02:20:19.269Z,6.90
2022-12-16T02:30:56.467Z,6.40
2022-12-16T02:41:17.530Z,6.10
2022-12-16T02:51:19.772Z,6.63
2022-12-16T03:01:47.662Z,5.97
2022-12-16T03:11:53.796Z,5.43
2022-12-16T03:22:02.943Z,5.53
2022-12-16T03:32:31.586Z,5.20
2022-12-16T03:42:34.819Z,5.10
2022-12-16T03:52:36.871Z,5.93
2022-12-16T04:02:39.308Z,5.27
2022-12-16T04:12:59.945Z,5.17
2022-12-16T04:23:20.812Z,5.37
2022-12-16T04:33:41.792Z,5.83
2022-12-16T04:44:02.684Z,6.07
2022-12-16T04:54:23.472Z,5.70
2022-12-16T05:04:44.298Z,6.47
2022-12-16T05:15:05.192Z,5.93
2022-12-16T05:25:26.324Z,6.50
2022-12-16T05:35:47.140Z,6.80
2022-12-16T05:46:08.110Z,6.70
2022-12-16T05:56:28.769Z,6.97
2022-12-16T06:06:49.746Z,7.40
2022-12-16T06:17:15.048Z,7.03
2022-12-16T06:27:36.053Z,7.60
2022-12-16T06:37:56.977Z,6.63
2022-12-16T06:48:18.014Z,6.97
2022-12-16T06:58:38.933Z,8.07
2022-12-16T07:08:59.747Z,8.17
2022-12-16T07:19:20.688Z,7.90
2022-12-16T07:29:41.634Z,6.50
2022-12-16T07:40:02.749Z,7.67
2022-12-16T07:50:23.663Z,7.40
2022-12-16T08:09:29.323Z,8.23
2022-12-16T08:19:50.195Z,8.30
2022-12-16T08:30:11.022Z,8.93
2022-12-16T08:40:36.313Z,8.93
2022-12-16T08:50:57.889Z,8.93
2022-12-16T09:01:18.855Z,9.83
2022-12-16T09:11:39.710Z,8.87
2022-12-16T09:22:00.573Z,9.53
2022-12-16T09:32:21.354Z,9.93
2022-12-16T09:42:57.469Z,9.80
2022-12-16T09:53:22.038Z,12.47
2022-12-16T10:03:57.809Z,9.77
2022-12-16T10:14:31.886Z,10.27
2022-12-16T10:25:19.126Z,9.90
2022-12-16T10:35:52.397Z,9.10
2022-12-16T10:46:16.559Z,30.57
2022-12-16T10:56:58.352Z,7.93
2022-12-16T11:07:19.212Z,8.20
2022-12-16T11:17:44.758Z,8.43
2022-12-16T11:28:05.770Z,8.37
2022-12-16T11:38:52.666Z,8.60
2022-12-16T11:49:25.413Z,10.33
2022-12-16T12:00:25.208Z,8.53
2022-12-16T12:10:53.635Z,8.00
2022-12-16T12:21:39.090Z,10.70
2022-12-16T12:32:11.262Z,9.27
2022-12-16T12:42:32.022Z,8.63
2022-12-16T12:53:20.456Z,8.70
2022-12-16T13:03:57.823Z,8.43
2022-12-16T13:14:38.587Z,8.53
2022-12-16T13:25:09.219Z,7.87
2022-12-16T13:35:29.956Z,8.23
2022-12-16T13:46:02.521Z,8.37
2022-12-16T13:56:25.183Z,9.10
2022-12-16T14:06:48.101Z,8.03
2022-12-16T14:17:17.532Z,8.80
2022-12-16T14:27:40.281Z,8.73
2022-12-16T14:38:01.223Z,8.70
2022-12-16T14:48:22.254Z,8.00
2022-12-16T14:58:43.135Z,8.60
2022-12-16T15:09:08.570Z,8.57
2022-12-16T15:19:36.494Z,9.03
2022-12-16T15:29:59.617Z,9.70
2022-12-16T15:40:20.418Z,9.87
2022-12-16T15:50:46.815Z,9.90
2022-12-16T16:01:19.152Z,9.70
2022-12-16T16:11:39.887Z,10.70
2022-12-16T16:22:00.678Z,10.47
2022-12-16T16:32:21.690Z,9.63
2022-12-16T16:42:42.700Z,9.57
2022-12-16T16:53:03.493Z,10.57
2022-12-16T17:03:24.565Z,10.20
2022-12-16T17:13:45.334Z,10.90
2022-12-16T17:24:06.353Z,10.87
2022-12-16T17:34:27.251Z,11.33
2022-12-16T17:44:48.083Z,11.80
2022-12-16T17:55:08.967Z,12.97
2022-12-16T18:05:37.618Z,11.80
2022-12-16T18:16:02.100Z,12.90
2022-12-16T18:26:24.919Z,13.00
2022-12-16T18:36:45.977Z,13.07
2022-12-16T18:47:06.953Z,14.30
2022-12-16T18:57:27.735Z,13.63
2022-12-16T19:07:48.712Z,17.17
2022-12-16T19:18:09.611Z,15.03
2022-12-16T19:28:34.223Z,15.27
2022-12-16T19:38:56.467Z,16.53
2022-12-16T19:49:17.566Z,15.40
2022-12-16T19:59:38.846Z,16.27
2022-12-16T20:09:59.273Z,16.57
2022-12-16T20:20:20.268Z,15.03
2022-12-16T20:30:41.235Z,16.27
2022-12-16T20:41:02.088Z,16.07
2022-12-16T20:51:26.889Z,17.20
2022-12-16T21:02:14.675Z,16.23
2022-12-16T21:12:28.827Z,18.33
2022-12-16T21:22:49.772Z,17.27
2022-12-16T21:33:10.590Z,15.83
2022-12-16T21:43:31.450Z,16.87
2022-12-16T21:53:53.578Z,17.00
2022-12-16T22:04:14.351Z,16.63
2022-12-16T22:14:35.206Z,13.33
2022-12-16T22:24:56.877Z,16.17
2022-12-16T22:35:17.727Z,15.83
2022-12-16T22:45:38.703Z,16.27
2022-12-16T22:56:02.116Z,16.43
2022-12-16T23:06:23.249Z,17.00
2022-12-16T23:16:44.113Z,16.97
2022-12-16T23:27:05.054Z,16.43
2022-12-16T23:37:25.930Z,16.73
2022-12-16T23:47:46.743Z,15.23
2022-12-16T23:58:07.649Z,14.33
